Time;durP1;ratioP1;P1;durP2;ratioP2;P2;SDS_P1;SDS_P2;PMS_P1;PMS_P2;Temp;Humidity;BMP_temperature;BMP_pressure;BME280_temperature;BME280_humidity;BME280_pressure;Samples;Min_cycle;Max_cycle;Signal;HPM_P1;HPM_P2
2021/03/17 00:01:42;;;;;;;2.97;2.73;;;;;;;3.63;89.10;97166.41;5025124;28;20195;-69
2021/03/17 00:04:08;;;;;;;2.60;2.40;;;;;;;3.66;88.41;97162.69;5021575;28;20656;-69
2021/03/17 00:06:33;;;;;;;2.80;2.60;;;;;;;3.56;88.81;97159.53;5018495;28;20175;-69
2021/03/17 00:08:59;;;;;;;2.60;2.40;;;;;;;3.63;88.99;97150.84;5011901;28;20548;-70
2021/03/17 00:11:25;;;;;;;2.57;2.37;;;;;;;3.62;89.40;97151.84;5012330;28;20257;-70
2021/03/17 00:13:52;;;;;;;2.97;2.40;;;;;;;3.59;88.75;97151.38;5028911;28;20205;-69
2021/03/17 00:16:17;;;;;;;2.70;2.50;;;;;;;3.63;88.10;97153.44;5026653;28;20630;-69
2021/03/17 00:18:43;;;;;;;2.50;2.30;;;;;;;3.48;90.01;97155.19;5021512;28;20194;-69
2021/03/17 00:21:08;;;;;;;2.70;2.50;;;;;;;3.63;88.83;97150.84;5028827;28;20202;-69
2021/03/17 00:23:34;;;;;;;2.87;2.60;;;;;;;3.53;89.26;97147.69;5022431;28;20183;-69
2021/03/17 00:25:59;;;;;;;2.77;2.50;;;;;;;3.46;89.08;97148.56;5020624;28;20181;-70
2021/03/17 00:28:25;;;;;;;2.93;2.60;;;;;;;3.63;89.04;97150.84;5018607;28;20179;-69
2021/03/17 00:30:50;;;;;;;2.90;2.70;;;;;;;3.53;89.48;97144.31;5028379;28;20202;-69
2021/03/17 00:33:16;;;;;;;2.80;2.60;;;;;;;3.51;89.99;97136.69;5020584;28;20624;-69
2021/03/17 00:35:43;;;;;;;2.50;2.30;;;;;;;3.46;90.24;97135.59;5027093;28;20171;-69
2021/03/17 00:38:09;;;;;;;3.33;3.03;;;;;;;3.63;89.28;97140.50;5021210;28;20286;-72
2021/03/17 00:40:36;;;;;;;2.70;2.50;;;;;;;3.65;89.56;97137.75;5018477;28;20210;-70
2021/03/17 00:43:02;;;;;;;2.93;2.70;;;;;;;3.59;89.27;97135.84;5015719;28;20247;-70
2021/03/17 00:45:28;;;;;;;2.90;2.70;;;;;;;3.70;88.79;97131.06;5024343;28;20198;-69
2021/03/17 00:47:54;;;;;;;2.83;2.63;;;;;;;3.63;89.56;97129.31;5022171;28;20185;-69
2021/03/17 00:50:21;;;;;;;3.30;2.93;;;;;;;3.72;89.33;97129.09;5015564;28;20260;-69
2021/03/17 00:52:47;;;;;;;3.00;2.80;;;;;;;3.49;90.53;97120.53;5027236;28;20168;-69
2021/03/17 00:55:13;;;;;;;2.97;2.77;;;;;;;3.54;90.38;97120.00;5018436;28;20179;-69
2021/03/17 00:57:40;;;;;;;3.20;3.00;;;;;;;3.45;90.12;97113.28;5016897;28;20222;-69
2021/03/17 01:00:08;;;;;;;3.13;2.93;;;;;;;3.45;90.38;97119.28;5032970;28;20210;-69
2021/03/17 01:02:33;;;;;;;2.90;2.70;;;;;;;3.51;90.10;97110.78;5021995;28;20174;-69
2021/03/17 01:05:27;;;;;;;3.00;2.80;;;;;;;3.46;89.39;97117.47;5038441;28;20178;-69
2021/03/17 01:07:53;;;;;;;3.23;2.93;;;;;;;3.32;91.25;97111.28;5024676;28;20188;-69
2021/03/17 01:10:23;;;;;;;3.47;3.13;;;;;;;3.49;89.76;97109.38;5033639;28;20198;-69
2021/03/17 01:12:49;;;;;;;2.97;2.77;;;;;;;3.41;90.32;97107.63;5040030;28;20633;-69
2021/03/17 01:15:16;;;;;;;4.30;3.50;;;;;;;3.29;90.95;97109.00;5034513;28;20182;-70
2021/03/17 01:17:42;;;;;;;3.63;3.33;;;;;;;3.32;91.02;97104.31;5046703;28;20553;-70
2021/03/17 01:20:08;;;;;;;3.67;3.30;;;;;;;3.16;92.58;97108.78;5035170;28;20207;-69
2021/03/17 01:22:34;;;;;;;3.60;3.30;;;;;;;2.97;94.28;97102.25;5043712;28;20182;-69
2021/03/17 01:25:00;;;;;;;3.67;3.37;;;;;;;3.02;94.53;97104.34;5044311;28;20197;-69
2021/03/17 01:27:25;;;;;;;3.60;3.30;;;;;;;3.04;95.74;97099.81;5033865;28;20249;-69
2021/03/17 01:29:51;;;;;;;3.67;3.37;;;;;;;3.16;94.90;97101.84;5036043;28;20220;-69
2021/03/17 01:32:16;;;;;;;4.03;3.67;;;;;;;3.21;94.37;97098.72;5046256;28;20174;-69
2021/03/17 01:34:42;;;;;;;4.10;3.80;;;;;;;3.16;94.77;97096.66;5038589;28;20191;-69
2021/03/17 01:37:08;;;;;;;4.40;4.00;;;;;;;2.99;95.26;97099.50;5039622;28;20226;-69
2021/03/17 01:39:33;;;;;;;4.10;3.70;;;;;;;3.01;95.10;97095.75;5037953;28;20226;-69
2021/03/17 01:41:59;;;;;;;3.97;3.60;;;;;;;3.10;94.74;97099.94;5045589;28;20177;-70
2021/03/17 01:44:24;;;;;;;4.43;4.03;;;;;;;3.14;95.10;97102.97;5035309;28;20186;-70
2021/03/17 01:46:50;;;;;;;4.37;3.97;;;;;;;3.12;95.68;97099.78;5045659;28;20316;-69
2021/03/17 01:49:15;;;;;;;4.47;3.50;;;;;;;3.02;95.78;97091.38;5037998;28;20202;-69
2021/03/17 01:51:41;;;;;;;4.30;3.90;;;;;;;3.04;95.36;97092.84;5042412;28;20182;-69
2021/03/17 01:54:07;;;;;;;5.23;4.57;;;;;;;3.11;94.82;97085.19;5048669;28;20186;-69
2021/03/17 01:56:33;;;;;;;4.37;3.97;;;;;;;3.06;95.14;97093.50;5035776;28;20210;-69
2021/03/17 01:59:00;;;;;;;4.43;4.03;;;;;;;3.07;94.83;97092.50;5034148;28;20227;-69
2021/03/17 02:01:27;;;;;;;4.17;3.77;;;;;;;3.07;95.39;97087.31;5038748;28;20798;-69
2021/03/17 02:03:52;;;;;;;4.57;4.17;;;;;;;2.93;95.23;97086.28;5036620;28;20214;-70
2021/03/17 02:06:19;;;;;;;4.60;4.10;;;;;;;3.00;95.91;97083.81;5031899;28;20206;-69
2021/03/17 02:08:45;;;;;;;4.90;4.40;;;;;;;2.83;96.86;97090.88;5048199;28;20181;-69
2021/03/17 02:11:12;;;;;;;4.73;4.20;;;;;;;2.79;96.90;97091.38;5035141;28;20268;-69
2021/03/17 02:14:03;;;;;;;6.80;4.87;;;;;;;2.66;97.77;97085.94;5042425;28;20174;-69
2021/03/17 02:16:43;;;;;;;5.30;4.80;;;;;;;2.61;100.00;97086.47;5024027;28;20182;-69
2021/03/17 02:19:11;;;;;;;5.47;4.97;;;;;;;2.54;100.00;97085.50;5016285;28;20179;-69
2021/03/17 02:21:46;;;;;;;5.63;5.10;;;;;;;2.60;100.00;97087.44;5012670;28;20183;-70
2021/03/17 02:24:28;;;;;;;5.43;4.50;;;;;;;2.62;100.00;97088.06;5024591;28;20187;-70
2021/03/17 02:27:12;;;;;;;4.77;4.23;;;;;;;2.55;100.00;97096.69;5050638;28;20184;-69
2021/03/17 02:29:52;;;;;;;5.20;4.70;;;;;;;2.58;100.00;97091.97;5044206;28;20255;-69
2021/03/17 02:32:37;;;;;;;4.97;4.47;;;;;;;2.72;100.00;97082.69;5028581;28;20174;-69
2021/03/17 02:35:05;;;;;;;4.60;3.90;;;;;;;2.71;100.00;97094.81;5034773;28;20171;-69
2021/03/17 02:37:33;;;;;;;4.90;4.37;;;;;;;2.72;99.72;97093.84;5037107;28;20198;-70
2021/03/17 02:40:07;;;;;;;4.73;4.20;;;;;;;2.56;100.00;97090.53;5036324;28;20202;-70
2021/03/17 02:42:52;;;;;;;4.73;4.30;;;;;;;2.62;100.00;97085.47;5045866;28;20208;-69
2021/03/17 02:45:29;;;;;;;4.93;4.43;;;;;;;2.63;99.75;97081.91;5034333;28;20597;-70
2021/03/17 02:48:03;;;;;;;4.77;4.37;;;;;;;2.65;100.00;97086.91;5050386;28;20196;-69
2021/03/17 02:50:32;;;;;;;4.47;4.07;;;;;;;2.64;99.29;97086.09;5018033;28;20218;-69
2021/03/17 02:53:00;;;;;;;4.77;4.37;;;;;;;2.59;100.00;97085.81;5032369;28;20178;-70
2021/03/17 02:55:32;;;;;;;4.00;3.60;;;;;;;2.54;100.00;97085.50;5036446;28;20248;-70
2021/03/17 02:57:59;;;;;;;4.13;3.73;;;;;;;2.46;100.00;97090.72;5039065;28;20600;-69
2021/03/17 03:00:27;;;;;;;4.20;3.90;;;;;;;2.55;100.00;97084.53;5038464;28;21047;-69
2021/03/17 03:02:53;;;;;;;4.13;3.73;;;;;;;2.59;100.00;97080.63;5034735;28;20183;-70
2021/03/17 03:05:20;;;;;;;4.00;3.70;;;;;;;2.53;99.33;97077.91;5035025;28;20632;-69
2021/03/17 03:07:49;;;;;;;4.10;3.77;;;;;;;2.59;100.00;97082.41;5049387;28;20605;-70
2021/03/17 03:10:17;;;;;;;4.43;4.00;;;;;;;2.48;100.00;97089.59;5037132;28;20288;-69
2021/03/17 03:12:43;;;;;;;4.00;3.70;;;;;;;2.43;99.55;97081.53;5047165;28;20268;-70
2021/03/17 03:15:10;;;;;;;3.83;3.53;;;;;;;2.49;99.95;97087.81;5045454;28;20181;-70
2021/03/17 03:17:39;;;;;;;4.27;3.90;;;;;;;2.38;99.26;97083.81;5047621;28;20600;-69
2021/03/17 03:20:08;;;;;;;4.30;3.90;;;;;;;2.43;100.00;97084.13;5051243;28;20210;-69
2021/03/17 03:22:35;;;;;;;4.20;3.80;;;;;;;2.36;100.00;97087.53;5035888;28;20622;-69
2021/03/17 03:25:00;;;;;;;4.00;3.70;;;;;;;2.45;100.00;97081.38;5044649;28;20178;-69
2021/03/17 03:27:28;;;;;;;4.40;4.00;;;;;;;2.55;99.38;97079.38;5045032;28;20188;-69
2021/03/17 03:29:55;;;;;;;4.43;4.03;;;;;;;2.45;100.00;97089.91;5037961;28;20202;-70
2021/03/17 03:32:22;;;;;;;4.30;3.90;;;;;;;2.35;100.00;97078.97;5029032;28;20179;-69
2021/03/17 03:34:47;;;;;;;6.30;4.30;;;;;;;2.53;100.00;97080.50;5024277;28;20268;-69
2021/03/17 03:37:14;;;;;;;5.20;4.70;;;;;;;2.41;100.00;97091.22;5045412;28;20325;-69
2021/03/17 03:39:40;;;;;;;4.67;4.27;;;;;;;2.58;99.54;97081.59;5040392;28;20238;-70
2021/03/17 03:42:08;;;;;;;4.50;4.10;;;;;;;2.56;100.00;97088.75;5051018;28;20234;-69
2021/03/17 03:44:34;;;;;;;5.00;4.50;;;;;;;2.59;100.00;97090.19;5037938;28;20182;-69
2021/03/17 03:47:00;;;;;;;5.20;4.70;;;;;;;2.59;100.00;97090.19;5043739;28;20205;-69
2021/03/17 03:49:26;;;;;;;5.60;4.37;;;;;;;2.47;99.84;97094.91;5046637;28;20764;-69
2021/03/17 03:52:04;;;;;;;4.57;4.17;;;;;;;2.29;100.00;97095.13;5046063;28;20680;-69
2021/03/17 03:54:44;;;;;;;4.87;4.47;;;;;;;2.36;100.00;97096.09;5025381;28;20187;-69
2021/03/17 03:57:21;;;;;;;4.40;4.00;;;;;;;2.52;100.00;97092.63;5036805;28;20218;-68
2021/03/17 03:59:49;;;;;;;4.20;3.80;;;;;;;2.40;100.00;97093.97;5019259;28;20213;-69
2021/03/17 04:02:25;;;;;;;5.00;4.47;;;;;;;2.38;100.00;97093.34;5036966;28;20531;-69
2021/03/17 04:04:51;;;;;;;5.23;4.73;;;;;;;2.33;100.00;97098.22;5046008;28;20275;-70
2021/03/17 04:07:19;;;;;;;5.50;4.90;;;;;;;2.31;100.00;97097.56;5036666;28;20171;-70
2021/03/17 04:09:51;;;;;;;5.20;4.70;;;;;;;2.30;100.00;97094.16;5018224;28;20206;-70
2021/03/17 04:12:20;;;;;;;4.53;4.13;;;;;;;2.30;100.00;97095.94;5041456;28;20178;-70
2021/03/17 04:14:59;;;;;;;5.40;4.57;;;;;;;2.24;100.00;97087.09;5019773;28;20653;-71
2021/03/17 04:17:30;;;;;;;6.50;4.87;;;;;;;2.17;100.00;97093.91;5045470;28;20201;-72
2021/03/17 04:20:00;;;;;;;5.47;4.70;;;;;;;2.26;100.00;97098.06;5039409;28;20209;-71
2021/03/17 04:22:32;;;;;;;5.03;4.53;;;;;;;2.27;100.00;97104.06;5044566;28;21020;-72
2021/03/17 04:25:02;;;;;;;5.37;4.87;;;;;;;2.24;100.00;97106.97;5048599;28;20199;-70
2021/03/17 04:27:29;;;;;;;6.17;5.57;;;;;;;2.17;100.00;97106.03;5036467;28;20178;-71
2021/03/17 04:29:56;;;;;;;6.40;5.80;;;;;;;2.08;100.00;97105.22;5031983;28;20222;-70
2021/03/17 04:32:25;;;;;;;7.13;5.63;;;;;;;2.08;100.00;97106.03;5041841;28;20166;-71
2021/03/17 04:34:51;;;;;;;6.13;5.53;;;;;;;2.08;100.00;97111.22;5045398;28;20190;-71
2021/03/17 04:37:18;;;;;;;6.60;6.00;;;;;;;2.24;100.00;97110.34;5044039;28;20197;-70
2021/03/17 04:39:44;;;;;;;5.77;5.27;;;;;;;2.37;100.00;97110.66;5035997;28;20213;-71
2021/03/17 04:42:11;;;;;;;7.37;5.93;;;;;;;2.26;100.00;97117.94;5046340;28;20178;-70
2021/03/17 04:44:37;;;;;;;7.07;6.33;;;;;;;2.20;100.00;97113.44;5033864;28;20237;-70
2021/03/17 04:47:04;;;;;;;6.77;6.17;;;;;;;2.17;100.00;97116.38;5041353;28;20301;-71
2021/03/17 04:49:32;;;;;;;7.97;7.00;;;;;;;2.18;100.00;97111.00;5033554;28;20288;-70
2021/03/17 04:51:58;;;;;;;6.77;6.07;;;;;;;2.11;100.00;97117.03;5036571;28;20182;-70
2021/03/17 04:54:23;;;;;;;6.87;6.20;;;;;;;2.12;100.00;97114.25;5033329;28;20254;-70
2021/03/17 04:56:50;;;;;;;6.70;6.10;;;;;;;2.25;100.00;97118.91;5033780;28;20566;-70
2021/03/17 04:59:19;;;;;;;8.10;7.30;;;;;;;2.21;100.00;97120.22;5029303;28;20257;-69
2021/03/17 05:01:46;;;;;;;8.77;7.87;;;;;;;2.14;100.00;97120.06;5030712;28;20187;-70
2021/03/17 05:04:14;;;;;;;8.80;7.33;;;;;;;2.17;100.00;97121.53;5019588;28;20236;-70
2021/03/17 05:06:44;;;;;;;8.33;7.53;;;;;;;2.18;100.00;97125.72;5032719;28;21305;-70
2021/03/17 05:09:14;;;;;;;8.60;7.73;;;;;;;2.08;100.00;97124.13;5013676;28;20521;-70
2021/03/17 05:11:42;;;;;;;8.53;7.67;;;;;;;2.16;100.00;97131.06;5031840;28;20183;-70
2021/03/17 05:14:14;;;;;;;9.90;8.10;;;;;;;2.19;100.00;97128.16;5032054;28;20175;-70
2021/03/17 05:16:41;;;;;;;9.10;8.20;;;;;;;2.25;100.00;97124.91;5032142;28;20348;-70
2021/03/17 05:19:08;;;;;;;8.17;7.37;;;;;;;2.32;100.00;97128.44;5031821;28;20551;-70
2021/03/17 05:21:35;;;;;;;8.97;8.07;;;;;;;2.22;100.00;97127.84;5031169;28;20186;-70
2021/03/17 05:24:00;;;;;;;9.37;8.47;;;;;;;2.26;100.00;97120.53;5031958;28;20167;-70
2021/03/17 05:26:27;;;;;;;9.00;8.03;;;;;;;2.22;100.00;97132.19;5030737;28;20528;-70
2021/03/17 05:28:54;;;;;;;9.10;8.13;;;;;;;2.22;100.00;97125.25;5031552;28;20225;-70
2021/03/17 05:31:20;;;;;;;10.00;8.53;;;;;;;2.20;100.00;97124.59;5031077;28;20189;-70
2021/03/17 05:33:48;;;;;;;10.17;8.73;;;;;;;2.12;100.00;97124.59;5031303;28;20174;-70
2021/03/17 05:36:14;;;;;;;10.80;9.20;;;;;;;2.21;100.00;97128.78;5030917;28;20649;-70
2021/03/17 05:38:39;;;;;;;9.70;8.60;;;;;;;2.13;100.00;97131.38;5031183;28;20214;-70
2021/03/17 05:41:05;;;;;;;10.90;9.57;;;;;;;2.17;100.00;97124.13;5031298;28;20293;-70
2021/03/17 05:43:31;;;;;;;13.47;10.37;;;;;;;2.20;100.00;97121.19;5030603;28;20183;-70
2021/03/17 05:45:57;;;;;;;10.93;9.83;;;;;;;2.18;100.00;97130.88;5031551;28;20182;-70
2021/03/17 05:48:25;;;;;;;11.87;10.67;;;;;;;2.20;100.00;97134.13;5012613;28;20201;-70
2021/03/17 05:50:50;;;;;;;12.93;10.53;;;;;;;2.19;100.00;97138.50;5031535;28;20572;-70
2021/03/17 05:53:17;;;;;;;13.33;10.73;;;;;;;2.17;100.00;97134.47;5030654;28;20206;-70
2021/03/17 05:55:44;;;;;;;13.13;10.73;;;;;;;1.94;100.00;97144.69;5031096;28;20683;-70
2021/03/17 05:58:15;;;;;;;13.00;11.40;;;;;;;2.00;100.00;97149.19;5022812;28;20226;-70
2021/03/17 06:00:41;;;;;;;14.30;12.07;;;;;;;2.05;100.00;97150.31;5030384;28;20304;-70
2021/03/17 06:03:07;;;;;;;14.30;11.90;;;;;;;2.07;100.00;97145.78;5022551;28;20292;-70
2021/03/17 06:05:33;;;;;;;17.33;12.67;;;;;;;2.13;100.00;97153.84;5029460;28;20193;-69
2021/03/17 06:08:13;;;;;;;17.83;13.17;;;;;;;2.15;100.00;97155.31;5047558;28;20174;-70
2021/03/17 06:10:39;;;;;;;14.87;12.07;;;;;;;2.18;100.00;97156.75;5019541;28;20703;-70
2021/03/17 06:13:09;;;;;;;16.93;14.03;;;;;;;2.07;100.00;97155.31;5039746;28;20182;-69
2021/03/17 06:15:37;;;;;;;17.17;13.93;;;;;;;1.97;100.00;97165.03;5021269;28;20189;-69
2021/03/17 06:18:11;;;;;;;18.03;13.43;;;;;;;2.04;100.00;97159.03;5038776;28;20205;-70
2021/03/17 06:20:37;;;;;;;19.97;13.60;;;;;;;2.11;100.00;97166.97;5030925;28;20686;-69
2021/03/17 06:23:02;;;;;;;16.53;13.57;;;;;;;2.23;100.00;97165.63;5023606;28;20178;-68
2021/03/17 06:25:28;;;;;;;16.93;12.87;;;;;;;2.26;100.00;97174.84;5050337;28;20181;-65
2021/03/17 06:27:54;;;;;;;17.03;13.67;;;;;;;1.94;100.00;97188.63;5048721;28;20644;-67
2021/03/17 06:30:20;;;;;;;16.77;13.83;;;;;;;1.63;100.00;97184.09;5018352;28;20289;-68
2021/03/17 06:32:46;;;;;;;19.37;15.37;;;;;;;1.63;100.00;97194.41;5043162;28;20186;-70
2021/03/17 06:35:17;;;;;;;18.77;13.93;;;;;;;1.53;100.00;97190.38;5020658;28;20178;-72
2021/03/17 06:37:43;;;;;;;19.10;13.87;;;;;;;1.55;100.00;97188.44;5033514;28;20566;-66
2021/03/17 06:40:32;;;;;;;20.40;14.73;;;;;;;1.66;100.00;97190.72;5025959;28;20209;-66
2021/03/17 06:43:09;;;;;;;19.07;14.27;;;;;;;1.72;100.00;97187.50;5021651;28;20252;-66
2021/03/17 06:45:38;;;;;;;18.30;14.07;;;;;;;1.62;100.00;97192.78;5047727;28;20201;-66
2021/03/17 06:48:23;;;;;;;18.87;14.53;;;;;;;1.78;100.00;97196.38;5043106;28;20266;-65
2021/03/17 06:51:09;;;;;;;21.70;15.00;;;;;;;1.88;100.00;97197.03;5046033;28;20202;-65
2021/03/17 06:53:45;;;;;;;40.33;15.80;;;;;;;1.86;100.00;97193.78;5021491;28;20197;-67
2021/03/17 06:56:18;;;;;;;21.40;15.93;;;;;;;1.91;100.00;97199.28;5029039;28;20181;-66
2021/03/17 06:58:46;;;;;;;24.73;16.50;;;;;;;1.96;100.00;97200.41;5027455;28;20239;-67
2021/03/17 07:01:32;;;;;;;23.57;17.43;;;;;;;2.05;100.00;97212.38;5037756;28;20217;-66
2021/03/17 07:04:30;;;;;;;21.87;15.97;;;;;;;1.89;100.00;97214.97;5042050;28;20255;-66
2021/03/17 07:07:02;;;;;;;23.87;17.83;;;;;;;1.97;100.00;97220.09;5042594;28;20175;-67
2021/03/17 07:09:30;;;;;;;24.37;16.57;;;;;;;1.83;100.00;97217.38;5025232;28;20199;-65
2021/03/17 07:12:05;;;;;;;28.77;17.80;;;;;;;1.90;100.00;97223.50;5026544;28;20668;-65
2021/03/17 07:14:42;;;;;;;25.50;17.13;;;;;;;1.86;100.00;97217.03;5027413;28;20672;-68
2021/03/17 07:17:24;;;;;;;26.93;17.73;;;;;;;2.04;100.00;97222.88;5023783;28;20213;-69
2021/03/17 07:19:50;;;;;;;25.70;17.20;;;;;;;1.92;100.00;97227.53;5034514;28;20300;-68
2021/03/17 07:22:16;;;;;;;24.30;17.73;;;;;;;1.93;100.00;97229.16;5042872;28;20258;-71
2021/03/17 07:24:47;;;;;;;28.73;17.73;;;;;;;1.99;100.00;97225.94;5022135;28;20279;-69
2021/03/17 07:27:24;;;;;;;25.00;16.73;;;;;;;1.98;100.00;97231.25;5016490;28;20183;-69
2021/03/17 07:30:03;;;;;;;24.70;16.80;;;;;;;2.25;100.00;97224.94;5023819;28;20198;-66
2021/03/17 07:32:53;;;;;;;21.90;15.70;;;;;;;2.41;100.00;97227.50;5047561;28;20182;-67
2021/03/17 07:35:33;;;;;;;21.80;15.80;;;;;;;2.34;100.00;97227.34;5029190;28;20191;-67
2021/03/17 07:38:07;;;;;;;21.13;16.03;;;;;;;2.56;100.00;97223.28;5027549;28;20211;-66
2021/03/17 07:40:36;;;;;;;20.30;15.37;;;;;;;2.71;100.00;97220.81;5046463;28;20210;-66
2021/03/17 07:43:02;;;;;;;21.47;15.50;;;;;;;2.88;100.00;97223.19;5021308;28;20248;-66
2021/03/17 07:45:33;;;;;;;19.73;13.90;;;;;;;2.89;100.00;97234.34;5031106;28;20193;-66
2021/03/17 07:48:00;;;;;;;16.57;12.80;;;;;;;2.99;100.00;97234.94;5035257;28;20191;-65
2021/03/17 07:50:26;;;;;;;17.13;13.17;;;;;;;3.11;100.00;97235.38;5034883;28;20210;-67
2021/03/17 07:52:53;;;;;;;16.70;12.80;;;;;;;3.34;100.00;97231.06;5016832;28;20666;-66
2021/03/17 07:55:19;;;;;;;16.60;11.63;;;;;;;3.43;100.00;97229.22;5019607;28;20190;-67
2021/03/17 07:57:45;;;;;;;15.50;11.60;;;;;;;3.30;99.81;97233.19;5034194;28;20258;-67
2021/03/17 08:00:12;;;;;;;15.10;11.40;;;;;;;3.40;100.00;97240.72;5041617;28;20213;-67
2021/03/17 08:02:38;;;;;;;15.00;11.17;;;;;;;3.36;98.68;97236.88;5041401;28;20191;-67
2021/03/17 08:05:05;;;;;;;15.60;11.50;;;;;;;3.19;98.52;97241.31;5041783;28;20179;-67
2021/03/17 08:07:32;;;;;;;14.43;11.13;;;;;;;2.99;99.36;97236.72;5017622;28;20258;-67
2021/03/17 08:09:58;;;;;;;14.60;11.13;;;;;;;3.34;99.80;97234.44;5027657;28;20218;-66
2021/03/17 08:12:25;;;;;;;11.70;9.63;;;;;;;3.39;97.04;97240.91;5045159;28;20194;-67
2021/03/17 08:14:51;;;;;;;13.47;9.90;;;;;;;3.41;95.60;97237.16;5015208;28;20170;-66
2021/03/17 08:17:38;;;;;;;12.47;9.10;;;;;;;3.47;93.60;97246.84;5016943;28;20285;-68
2021/03/17 08:20:17;;;;;;;11.63;9.83;;;;;;;3.30;93.49;97246.13;5050179;28;20301;-67
2021/03/17 08:22:43;;;;;;;16.47;10.87;;;;;;;3.27;95.12;97241.31;5044969;28;20180;-67
2021/03/17 08:25:10;;;;;;;12.87;9.53;;;;;;;3.39;95.23;97246.09;5020072;28;20171;-67
2021/03/17 08:27:36;;;;;;;12.97;9.57;;;;;;;3.56;94.25;97240.66;5018478;28;20250;-67
2021/03/17 08:30:07;;;;;;;11.43;9.10;;;;;;;3.50;91.99;97237.94;5024922;28;20292;-67
2021/03/17 08:32:54;;;;;;;12.27;9.70;;;;;;;3.63;92.72;97231.19;5022508;28;20174;-68
2021/03/17 08:35:20;;;;;;;12.60;9.57;;;;;;;3.86;91.12;97225.22;5020572;28;20171;-66
2021/03/17 08:37:54;;;;;;;9.67;6.90;;;;;;;4.27;88.75;97234.28;5034190;28;20558;-67
2021/03/17 08:40:28;;;;;;;8.73;6.33;;;;;;;4.19;86.20;97242.13;5027374;28;20675;-67
2021/03/17 08:42:55;;;;;;;9.40;7.30;;;;;;;4.07;86.04;97235.75;5021584;28;20176;-68
2021/03/17 08:45:22;;;;;;;11.60;8.53;;;;;;;4.43;87.55;97244.53;5049300;28;20197;-68
2021/03/17 08:47:49;;;;;;;9.60;7.33;;;;;;;4.58;87.24;97247.13;5033399;28;20184;-67
2021/03/17 08:50:14;;;;;;;9.53;7.40;;;;;;;4.54;83.60;97251.06;5042307;28;20669;-70
2021/03/17 08:52:43;;;;;;;11.33;7.33;;;;;;;4.88;83.97;97243.56;5018423;28;20233;-67
2021/03/17 08:55:14;;;;;;;7.67;6.77;;;;;;;4.60;80.46;97238.19;5017965;28;20211;-67
2021/03/17 08:58:05;;;;;;;7.37;6.67;;;;;;;4.33;79.26;97248.34;5011710;28;20235;-67
2021/03/17 09:00:44;;;;;;;9.30;6.33;;;;;;;4.11;77.27;97237.84;5000292;28;20218;-67
2021/03/17 09:03:30;;;;;;;6.90;6.20;;;;;;;4.33;78.26;97228.41;5012386;28;20178;-67
2021/03/17 09:06:17;;;;;;;7.00;6.23;;;;;;;4.29;76.96;97231.53;5002176;28;20232;-66
2021/03/17 09:09:02;;;;;;;6.43;5.83;;;;;;;4.35;75.69;97230.81;5013599;28;20178;-66
2021/03/17 09:11:30;;;;;;;7.07;6.00;;;;;;;4.17;74.01;97231.16;4995698;28;20251;-66
2021/03/17 09:14:08;;;;;;;6.87;6.23;;;;;;;3.94;75.12;97225.16;5015515;28;20174;-65
2021/03/17 09:16:36;;;;;;;5.60;5.10;;;;;;;4.06;75.13;97229.78;4995968;28;20606;-65
2021/03/17 09:19:08;;;;;;;5.20;4.70;;;;;;;4.06;69.83;97222.00;4997886;28;20191;-66
2021/03/17 09:21:36;;;;;;;4.30;4.00;;;;;;;4.08;67.41;97216.63;5016296;28;20183;-66
2021/03/17 09:24:02;;;;;;;6.20;5.60;;;;;;;4.25;71.87;97219.88;5013459;28;20227;-66
2021/03/17 09:26:29;;;;;;;6.50;4.53;;;;;;;4.22;66.44;97213.25;5005795;28;20175;-64
2021/03/17 09:28:56;;;;;;;5.13;4.50;;;;;;;4.27;67.68;97216.13;5018664;28;20183;-66
2021/03/17 09:31:22;;;;;;;5.90;5.40;;;;;;;4.69;70.04;97215.53;5019302;28;20197;-65
2021/03/17 09:33:49;;;;;;;6.93;6.23;;;;;;;4.60;70.43;97220.03;4998691;28;20180;-66
2021/03/17 09:36:18;;;;;;;6.60;5.90;;;;;;;4.87;69.80;97222.97;4997196;28;20184;-65
2021/03/17 09:38:52;;;;;;;5.33;4.80;;;;;;;5.21;67.35;97217.22;5007785;28;20215;-64
2021/03/17 09:41:29;;;;;;;6.10;5.23;;;;;;;5.54;67.19;97217.56;5008615;28;20182;-65
2021/03/17 09:44:00;;;;;;;5.80;5.30;;;;;;;5.53;67.19;97227.16;5000060;28;20549;-66
2021/03/17 09:46:40;;;;;;;5.33;4.67;;;;;;;5.13;65.04;97220.69;4994920;28;20192;-66
2021/03/17 09:49:13;;;;;;;5.17;4.67;;;;;;;5.00;65.33;97216.16;5006831;28;20576;-66
2021/03/17 09:51:50;;;;;;;5.10;4.70;;;;;;;4.89;64.88;97221.81;5005673;28;20202;-66
2021/03/17 09:54:24;;;;;;;4.93;4.50;;;;;;;4.89;65.07;97221.00;5010146;28;20258;-64
2021/03/17 09:56:59;;;;;;;5.43;4.87;;;;;;;4.98;65.46;97225.94;5021135;28;20184;-66
2021/03/17 09:59:29;;;;;;;6.20;4.80;;;;;;;4.91;64.82;97225.03;5012973;28;20241;-66
2021/03/17 10:02:17;;;;;;;5.23;4.73;;;;;;;4.92;64.48;97218.84;5013930;28;20661;-66
2021/03/17 10:04:51;;;;;;;5.17;4.67;;;;;;;5.08;65.12;97217.84;5016005;28;20262;-66
2021/03/17 10:07:23;;;;;;;4.77;4.37;;;;;;;5.25;66.59;97216.66;5013717;28;20175;-65
2021/03/17 10:09:52;;;;;;;5.07;4.67;;;;;;;5.52;66.26;97207.34;5030924;28;20205;-66
2021/03/17 10:12:22;;;;;;;7.20;4.90;;;;;;;5.59;64.09;97203.03;5020318;28;20182;-65
2021/03/17 10:14:56;;;;;;;5.40;5.00;;;;;;;5.86;62.92;97198.88;5048554;28;20221;-66
2021/03/17 10:17:24;;;;;;;4.70;4.30;;;;;;;6.29;62.47;97201.50;5026889;28;20212;-65
2021/03/17 10:19:52;;;;;;;8.00;4.77;;;;;;;6.54;61.17;97195.66;5025060;28;20222;-66
2021/03/17 10:22:21;;;;;;;4.67;4.37;;;;;;;6.53;60.94;97203.63;5011448;28;20207;-65
2021/03/17 10:24:49;;;;;;;6.00;5.50;;;;;;;6.15;62.30;97200.56;5020114;28;20186;-65
2021/03/17 10:27:17;;;;;;;5.67;4.90;;;;;;;5.93;61.82;97197.19;5032424;28;20266;-66
2021/03/17 10:29:45;;;;;;;5.37;4.97;;;;;;;6.21;61.97;97199.81;5044427;28;20222;-66
2021/03/17 10:32:15;;;;;;;5.07;4.67;;;;;;;6.05;59.93;97198.28;5050045;28;20186;-66
2021/03/17 10:34:41;;;;;;;5.77;4.97;;;;;;;6.19;61.34;97192.19;5033590;28;20178;-66
2021/03/17 10:37:11;;;;;;;4.70;4.37;;;;;;;6.30;60.58;97184.88;5029333;28;20560;-66
2021/03/17 10:39:37;;;;;;;9.13;4.97;;;;;;;6.14;60.13;97191.16;5040144;28;20469;-66
2021/03/17 10:42:20;;;;;;;5.43;4.93;;;;;;;5.85;61.03;97190.28;5045084;28;20178;-66
2021/03/17 10:45:06;;;;;;;7.33;4.93;;;;;;;5.92;60.34;97189.56;5012120;28;20214;-66
2021/03/17 10:47:32;;;;;;;4.47;4.17;;;;;;;5.85;60.76;97186.91;5015027;28;20194;-66
2021/03/17 10:49:58;;;;;;;5.17;4.77;;;;;;;6.00;61.66;97181.63;5017806;28;20209;-66
2021/03/17 10:52:46;;;;;;;5.23;4.80;;;;;;;6.12;61.71;97177.53;5041496;28;20185;-66
2021/03/17 10:55:12;;;;;;;5.60;5.20;;;;;;;6.32;62.06;97177.66;5022008;28;20211;-66
2021/03/17 10:57:38;;;;;;;5.73;5.33;;;;;;;6.08;61.38;97190.09;5030866;28;20673;-66
2021/03/17 11:00:21;;;;;;;5.00;4.60;;;;;;;5.36;63.90;97185.00;5014051;28;20211;-66
2021/03/17 11:02:46;;;;;;;5.70;5.10;;;;;;;4.96;65.18;97182.94;5015145;28;20296;-66
2021/03/17 11:05:15;;;;;;;5.90;5.30;;;;;;;5.11;66.55;97188.91;5015217;28;20178;-66
2021/03/17 11:07:58;;;;;;;6.60;6.00;;;;;;;5.00;69.90;97185.00;5020477;28;20178;-65
2021/03/17 11:10:50;;;;;;;6.53;5.67;;;;;;;4.82;71.41;97181.16;5042602;28;20202;-66
2021/03/17 11:13:18;;;;;;;6.67;5.70;;;;;;;4.57;72.96;97186.63;5011641;28;20176;-66
2021/03/17 11:15:45;;;;;;;6.50;5.90;;;;;;;4.56;73.14;97185.03;5045102;28;20168;-64
2021/03/17 11:18:20;;;;;;;6.77;6.13;;;;;;;4.59;71.31;97181.25;5049230;28;20552;-65
2021/03/17 11:20:45;;;;;;;5.77;5.17;;;;;;;4.55;72.01;97182.59;5035395;28;20197;-65
2021/03/17 11:23:26;;;;;;;5.30;4.80;;;;;;;4.66;71.92;97181.34;5021130;28;20186;-65
2021/03/17 11:25:54;;;;;;;6.63;5.83;;;;;;;4.64;72.61;97178.94;5021483;28;20162;-65
2021/03/17 11:28:24;;;;;;;5.40;4.80;;;;;;;4.81;71.93;97184.75;5051264;28;20178;-64
2021/03/17 11:31:11;;;;;;;6.07;5.47;;;;;;;4.74;72.83;97179.44;5029401;28;20257;-65
2021/03/17 11:33:37;;;;;;;6.33;5.73;;;;;;;4.76;72.54;97179.28;5046136;28;20181;-66
2021/03/17 11:36:04;;;;;;;10.67;5.83;;;;;;;5.02;72.43;97177.00;5045583;28;20628;-66
2021/03/17 11:38:30;;;;;;;6.30;5.70;;;;;;;5.11;71.89;97181.13;5041710;28;20213;-65
2021/03/17 11:40:58;;;;;;;5.43;4.93;;;;;;;4.94;71.41;97179.72;5045928;28;20208;-65
2021/03/17 11:43:26;;;;;;;6.17;5.33;;;;;;;4.46;73.72;97179.28;5018929;28;20183;-65
2021/03/17 11:45:53;;;;;;;5.47;4.97;;;;;;;4.44;75.92;97178.66;5019819;28;20192;-65
2021/03/17 11:48:19;;;;;;;6.37;5.77;;;;;;;4.13;76.01;97191.75;5019352;28;20186;-64